createdAt,value
2018-08-12T00:00:51.502Z,1.70
2018-08-12T00:01:51.484Z,1.80
2018-08-12T00:02:51.464Z,1.90
2018-08-12T00:03:51.446Z,1.80
2018-08-12T00:04:51.429Z,1.70
2018-08-12T00:05:51.411Z,1.80
2018-08-12T00:06:51.392Z,1.90
2018-08-12T00:07:51.373Z,1.70
2018-08-12T00:08:51.355Z,1.80
2018-08-12T00:09:51.337Z,1.70
2018-08-12T00:10:51.319Z,1.90
2018-08-12T00:11:51.300Z,1.90
2018-08-12T00:12:51.282Z,1.70
2018-08-12T00:13:51.264Z,1.70
2018-08-12T00:14:51.244Z,1.70
2018-08-12T00:15:51.227Z,1.70
2018-08-12T00:16:51.208Z,1.90
2018-08-12T00:17:51.190Z,1.60
2018-08-12T00:18:51.173Z,1.70
2018-08-12T00:19:51.153Z,1.70
2018-08-12T00:20:51.136Z,1.60
2018-08-12T00:21:51.117Z,1.60
2018-08-12T00:22:51.097Z,1.60
2018-08-12T00:23:51.081Z,1.70
2018-08-12T00:24:51.062Z,1.80
2018-08-12T00:25:51.043Z,1.60
2018-08-12T00:26:51.024Z,2.20
2018-08-12T00:27:51.006Z,1.80
2018-08-12T00:28:50.988Z,1.70
2018-08-12T00:29:51.725Z,2.00
2018-08-12T00:30:50.950Z,2.00
2018-08-12T00:31:50.932Z,1.90
2018-08-12T00:32:50.917Z,2.10
2018-08-12T00:33:50.896Z,1.70
2018-08-12T00:34:50.906Z,1.80
2018-08-12T00:35:50.859Z,2.10
2018-08-12T00:36:50.841Z,1.90
2018-08-12T00:37:50.822Z,2.00
2018-08-12T00:38:50.804Z,1.80
2018-08-12T00:39:50.786Z,1.90
2018-08-12T00:40:50.766Z,1.80
2018-08-12T00:41:50.748Z,1.60
2018-08-12T00:42:50.729Z,1.90
2018-08-12T00:43:50.712Z,2.00
2018-08-12T00:44:50.692Z,1.80
2018-08-12T00:45:50.674Z,2.00
2018-08-12T00:46:50.655Z,2.00
2018-08-12T00:47:50.637Z,2.00
2018-08-12T00:48:50.622Z,2.10
2018-08-12T00:49:50.600Z,1.80
2018-08-12T00:50:50.580Z,2.00
2018-08-12T00:51:50.563Z,2.00
2018-08-12T00:52:50.544Z,2.10
2018-08-12T00:53:50.526Z,2.00
2018-08-12T00:54:50.508Z,2.00
2018-08-12T00:55:50.488Z,2.10
2018-08-12T00:56:50.471Z,1.90
2018-08-12T00:57:50.452Z,2.10
2018-08-12T00:58:50.435Z,2.00
2018-08-12T00:59:50.418Z,2.10
2018-08-12T01:00:50.396Z,2.10
2018-08-12T01:01:51.132Z,1.80
2018-08-12T01:02:50.358Z,2.00
2018-08-12T01:03:50.341Z,1.80
2018-08-12T01:04:50.321Z,2.00
2018-08-12T01:05:50.303Z,1.80
2018-08-12T01:06:50.587Z,2.00
2018-08-12T01:07:50.267Z,2.10
2018-08-12T01:08:50.247Z,2.00
2018-08-12T01:09:50.229Z,1.90
2018-08-12T01:10:50.216Z,1.90
2018-08-12T01:11:50.205Z,1.90
2018-08-12T01:12:50.174Z,1.80
2018-08-12T01:13:50.158Z,1.90
2018-08-12T01:14:50.137Z,1.90
2018-08-12T01:15:50.116Z,2.00
2018-08-12T01:16:50.100Z,1.80
2018-08-12T01:17:50.081Z,2.00
2018-08-12T01:18:50.060Z,2.00
2018-08-12T01:19:50.042Z,1.90
2018-08-12T01:20:50.023Z,1.80
2018-08-12T01:21:50.005Z,1.80
2018-08-12T01:22:49.986Z,2.10
2018-08-12T01:23:49.967Z,1.90
2018-08-12T01:24:49.948Z,2.00
2018-08-12T01:25:49.930Z,2.00
2018-08-12T01:26:49.911Z,1.90
2018-08-12T01:27:49.892Z,1.70
2018-08-12T01:28:49.875Z,1.70
2018-08-12T01:29:49.855Z,1.80
2018-08-12T01:30:49.836Z,2.30
2018-08-12T01:31:49.818Z,1.90
2018-08-12T01:32:49.798Z,2.10
2018-08-12T01:33:49.780Z,1.80
2018-08-12T01:34:49.762Z,1.80
2018-08-12T01:35:49.755Z,2.10
2018-08-12T01:36:49.723Z,2.10
2018-08-12T01:37:49.705Z,2.10
2018-08-12T01:38:49.685Z,2.10
2018-08-12T01:39:49.668Z,2.10
2018-08-12T01:40:49.650Z,2.20
2018-08-12T01:41:49.630Z,2.30
2018-08-12T01:42:49.610Z,2.00
2018-08-12T01:43:49.591Z,2.10
2018-08-12T01:44:49.573Z,2.10
2018-08-12T01:45:49.556Z,2.00
2018-08-12T01:46:49.536Z,2.10
2018-08-12T01:47:49.517Z,2.20
2018-08-12T01:48:49.498Z,1.90
2018-08-12T01:49:49.481Z,2.00
2018-08-12T01:50:49.471Z,1.90
2018-08-12T01:51:49.441Z,2.00
2018-08-12T01:52:49.423Z,1.90
2018-08-12T01:53:49.403Z,2.00
2018-08-12T01:54:49.383Z,2.00
2018-08-12T01:55:49.364Z,1.80
2018-08-12T01:56:49.347Z,2.00
2018-08-12T01:57:49.330Z,2.00
2018-08-12T01:58:49.308Z,1.90
2018-08-12T01:59:49.289Z,2.00
2018-08-12T02:00:49.271Z,1.90
2018-08-12T02:01:49.253Z,2.00
2018-08-12T02:02:49.233Z,2.30
2018-08-12T02:03:49.212Z,1.60
2018-08-12T02:04:49.195Z,2.30
2018-08-12T02:05:49.176Z,2.20
2018-08-12T02:06:49.156Z,1.80
2018-08-12T02:07:49.137Z,1.90
2018-08-12T02:08:49.119Z,2.20
2018-08-12T02:09:49.099Z,2.00
2018-08-12T02:10:49.080Z,2.00
2018-08-12T02:11:49.063Z,2.00
2018-08-12T02:12:49.043Z,2.20
2018-08-12T02:13:49.023Z,2.20
2018-08-12T02:14:49.004Z,2.10
2018-08-12T02:15:48.985Z,2.00
2018-08-12T02:16:48.967Z,2.00
2018-08-12T02:17:48.947Z,1.90
2018-08-12T02:18:48.928Z,2.00
2018-08-12T02:19:49.662Z,1.80
2018-08-12T02:20:48.891Z,2.00
2018-08-12T02:21:48.872Z,2.20
2018-08-12T02:22:48.851Z,2.20
2018-08-12T02:23:48.832Z,2.10
2018-08-12T02:24:48.815Z,2.20
2018-08-12T02:25:48.796Z,1.90
2018-08-12T02:26:48.775Z,1.90
2018-08-12T02:27:48.756Z,2.00
2018-08-12T02:28:48.739Z,1.90
2018-08-12T02:29:48.718Z,2.00
2018-08-12T02:30:48.700Z,2.10
2018-08-12T02:31:48.685Z,2.10
2018-08-12T02:32:48.665Z,2.10
2018-08-12T02:33:48.641Z,2.40
2018-08-12T02:34:48.623Z,2.00
2018-08-12T02:35:48.604Z,1.80
2018-08-12T02:36:48.584Z,1.90
2018-08-12T02:37:48.565Z,1.90
2018-08-12T02:38:48.545Z,2.20
2018-08-12T02:39:48.526Z,2.10
2018-08-12T02:40:48.508Z,2.00
2018-08-12T02:41:48.488Z,1.90
2018-08-12T02:42:48.470Z,2.00
2018-08-12T02:43:48.450Z,2.20
2018-08-12T02:44:48.431Z,2.00
2018-08-12T02:45:49.162Z,2.10
2018-08-12T02:46:48.392Z,2.20
2018-08-12T02:47:48.374Z,2.20
2018-08-12T02:48:48.355Z,2.00
2018-08-12T02:49:48.336Z,2.30
2018-08-12T02:50:48.315Z,2.10
2018-08-12T02:51:48.297Z,2.10
2018-08-12T02:52:48.280Z,2.30
2018-08-12T02:53:48.258Z,2.00
2018-08-12T02:54:48.237Z,1.90
2018-08-12T02:55:48.220Z,2.30
2018-08-12T02:56:48.200Z,2.00
2018-08-12T02:57:48.181Z,2.20
2018-08-12T02:58:48.161Z,2.20
2018-08-12T02:59:48.142Z,2.10
2018-08-12T03:00:48.136Z,2.20
2018-08-12T03:01:48.104Z,2.10
2018-08-12T03:02:48.085Z,2.00
2018-08-12T03:03:48.070Z,2.20
2018-08-12T03:04:48.046Z,2.20
2018-08-12T03:05:48.027Z,2.10
2018-08-12T03:06:48.011Z,2.10
2018-08-12T03:07:47.990Z,2.30
2018-08-12T03:08:47.970Z,2.10
2018-08-12T03:09:47.956Z,2.20
2018-08-12T03:10:47.930Z,2.00
2018-08-12T03:11:47.911Z,2.20
2018-08-12T03:12:47.892Z,2.40
2018-08-12T03:13:47.873Z,2.10
2018-08-12T03:14:47.852Z,2.00
2018-08-12T03:15:47.833Z,2.30
2018-08-12T03:16:47.814Z,2.40
2018-08-12T03:17:47.799Z,2.10
2018-08-12T03:18:47.774Z,1.90
2018-08-12T03:19:47.760Z,2.30
2018-08-12T03:20:47.741Z,2.10
2018-08-12T03:21:47.717Z,2.50
2018-08-12T03:22:47.700Z,2.30
2018-08-12T03:23:47.679Z,2.50
2018-08-12T03:24:47.659Z,2.30
2018-08-12T03:25:47.640Z,2.30
2018-08-12T03:26:47.620Z,2.30
2018-08-12T03:27:47.601Z,2.40
2018-08-12T03:28:47.582Z,2.10
2018-08-12T03:29:47.562Z,2.30
2018-08-12T03:30:47.542Z,2.20
2018-08-12T03:31:47.525Z,2.10
2018-08-12T03:32:47.505Z,2.30
2018-08-12T03:33:47.485Z,2.00
2018-08-12T03:34:47.466Z,2.20
2018-08-12T03:35:47.446Z,2.20
2018-08-12T03:36:47.427Z,2.60
2018-08-12T03:37:47.407Z,2.20
2018-08-12T03:38:47.386Z,2.20
2018-08-12T03:39:47.368Z,2.40
2018-08-12T03:40:47.348Z,2.40
2018-08-12T03:41:47.330Z,2.30
2018-08-12T03:42:47.309Z,2.40
2018-08-12T03:43:47.290Z,2.40
2018-08-12T03:44:47.271Z,2.50
2018-08-12T03:45:47.254Z,2.50
2018-08-12T03:46:47.231Z,2.40
2018-08-12T03:47:47.211Z,2.20
2018-08-12T03:48:47.236Z,2.30
2018-08-12T03:49:47.173Z,2.50
2018-08-12T03:50:47.153Z,2.40
2018-08-12T03:51:47.138Z,2.10
2018-08-12T03:52:47.114Z,2.30
2018-08-12T03:53:47.096Z,2.20
2018-08-12T03:54:47.076Z,2.40
2018-08-12T03:55:47.056Z,2.40
2018-08-12T03:56:47.036Z,2.30
2018-08-12T03:57:47.018Z,2.30
2018-08-12T03:58:46.999Z,2.50
2018-08-12T03:59:46.979Z,2.20
2018-08-12T04:00:46.959Z,2.30
2018-08-12T04:01:46.940Z,2.40
2018-08-12T04:02:47.669Z,2.20
2018-08-12T04:03:46.901Z,2.30
2018-08-12T04:04:46.879Z,2.40
2018-08-12T04:05:46.859Z,2.40
2018-08-12T04:06:46.839Z,2.50
2018-08-12T04:07:46.821Z,2.40
2018-08-12T04:08:46.800Z,2.30
2018-08-12T04:09:46.781Z,2.30
2018-08-12T04:10:46.760Z,2.50
2018-08-12T04:11:46.745Z,2.40
2018-08-12T04:12:46.722Z,2.50
2018-08-12T04:13:46.702Z,2.40
2018-08-12T04:14:46.681Z,2.40
2018-08-12T04:15:46.662Z,2.50
2018-08-12T04:16:46.642Z,2.50
2018-08-12T04:17:46.623Z,2.40
2018-08-12T04:18:48.891Z,2.30
2018-08-12T04:19:46.583Z,2.40
2018-08-12T04:20:46.565Z,2.40
2018-08-12T04:21:46.544Z,2.50
2018-08-12T04:22:46.526Z,2.10
2018-08-12T04:23:46.505Z,2.40
2018-08-12T04:24:46.489Z,2.10
2018-08-12T04:25:46.466Z,2.30
2018-08-12T04:26:46.444Z,2.60
2018-08-12T04:27:46.425Z,2.20
2018-08-12T04:28:46.406Z,2.20
2018-08-12T04:29:46.387Z,2.30
2018-08-12T04:30:46.368Z,2.50
2018-08-12T04:31:46.346Z,2.20
2018-08-12T04:32:46.328Z,2.30
2018-08-12T04:33:46.307Z,2.50
2018-08-12T04:34:46.288Z,2.30
2018-08-12T04:35:46.267Z,2.40
2018-08-12T04:36:46.248Z,2.30
2018-08-12T04:37:46.228Z,2.30
2018-08-12T04:38:46.208Z,2.40
2018-08-12T04:39:46.189Z,2.00
2018-08-12T04:40:46.168Z,2.40
2018-08-12T04:41:46.150Z,2.40
2018-08-12T04:42:46.129Z,2.40
2018-08-12T04:43:46.110Z,2.30
2018-08-12T04:44:46.090Z,2.30
2018-08-12T04:45:46.073Z,2.30
2018-08-12T04:46:46.051Z,2.50
2018-08-12T04:47:46.031Z,2.40
2018-08-12T04:48:46.010Z,2.40
2018-08-12T04:49:45.994Z,2.50
2018-08-12T04:50:45.975Z,2.50
2018-08-12T04:51:45.950Z,2.50
2018-08-12T04:52:45.931Z,2.60
2018-08-12T04:53:45.913Z,2.30
2018-08-12T04:54:45.891Z,2.20
2018-08-12T04:55:45.872Z,2.50
2018-08-12T04:56:45.852Z,2.30
2018-08-12T04:57:45.833Z,2.40
2018-08-12T04:58:45.815Z,2.40
2018-08-12T04:59:45.793Z,2.30
2018-08-12T05:00:45.774Z,2.30
2018-08-12T05:01:45.754Z,2.60
2018-08-12T05:02:45.735Z,2.80
2018-08-12T05:03:45.716Z,2.40
2018-08-12T05:04:45.695Z,2.50
2018-08-12T05:05:45.675Z,2.50
2018-08-12T05:06:45.655Z,2.40
2018-08-12T05:07:45.635Z,2.50
2018-08-12T05:08:45.616Z,2.50
2018-08-12T05:09:45.598Z,2.60
2018-08-12T05:10:45.576Z,2.40
2018-08-12T05:11:45.557Z,2.50
2018-08-12T05:12:45.537Z,2.20
2018-08-12T05:13:45.518Z,2.40
2018-08-12T05:14:45.499Z,2.30
2018-08-12T05:15:45.480Z,2.40
2018-08-12T05:16:45.459Z,2.50
2018-08-12T05:17:46.193Z,2.40
2018-08-12T05:18:45.420Z,2.30
2018-08-12T05:19:45.404Z,2.20
2018-08-12T05:20:45.381Z,2.60
2018-08-12T05:21:45.362Z,2.60
2018-08-12T05:22:45.343Z,2.50
2018-08-12T05:23:45.321Z,2.20
2018-08-12T05:24:45.302Z,2.10
2018-08-12T05:25:45.287Z,2.50
2018-08-12T05:26:45.262Z,2.40
2018-08-12T05:27:45.243Z,2.40
2018-08-12T05:28:45.225Z,2.30
2018-08-12T05:29:45.205Z,2.20
2018-08-12T05:30:45.185Z,2.20
2018-08-12T05:31:45.166Z,2.40
2018-08-12T05:32:45.145Z,2.30
2018-08-12T05:33:45.128Z,2.20
2018-08-12T05:34:45.106Z,2.40
2018-08-12T05:35:45.086Z,2.10
2018-08-12T05:36:45.068Z,2.30
2018-08-12T05:37:45.047Z,2.10
2018-08-12T05:38:45.027Z,2.30
2018-08-12T05:39:45.008Z,2.20
2018-08-12T05:40:44.989Z,2.50
2018-08-12T05:41:44.969Z,2.20
2018-08-12T05:42:44.948Z,2.40
2018-08-12T05:43:44.929Z,2.20
2018-08-12T05:44:45.660Z,2.20
2018-08-12T05:45:44.890Z,2.30
2018-08-12T05:46:44.874Z,2.20
2018-08-12T05:47:44.851Z,2.30
2018-08-12T05:48:44.831Z,2.10
2018-08-12T05:49:44.812Z,2.10
2018-08-12T05:50:44.792Z,2.20
2018-08-12T05:51:44.774Z,2.20
2018-08-12T05:52:44.753Z,2.20
2018-08-12T05:53:44.734Z,2.40
2018-08-12T05:54:44.714Z,2.20
2018-08-12T05:55:44.695Z,2.20
2018-08-12T05:56:44.676Z,2.30
2018-08-12T05:57:44.656Z,2.20
2018-08-12T05:58:44.636Z,2.50
2018-08-12T05:59:44.617Z,2.10
2018-08-12T06:00:44.600Z,2.20
2018-08-12T06:01:44.578Z,2.10
2018-08-12T06:02:44.595Z,2.40
2018-08-12T06:03:44.540Z,2.30
2018-08-12T06:04:44.523Z,2.40
2018-08-12T06:05:44.501Z,2.20
2018-08-12T06:06:44.481Z,2.00
2018-08-12T06:07:44.462Z,2.40
2018-08-12T06:08:44.458Z,2.20
2018-08-12T06:09:44.428Z,2.30
2018-08-12T06:10:44.403Z,2.40
2018-08-12T06:11:44.384Z,2.40
2018-08-12T06:12:44.365Z,2.50
2018-08-12T06:13:44.349Z,2.00
2018-08-12T06:14:44.327Z,2.20
2018-08-12T06:15:44.309Z,2.60
2018-08-12T06:16:45.043Z,2.10
2018-08-12T06:17:44.270Z,2.20
2018-08-12T06:18:44.248Z,2.20
2018-08-12T06:19:44.230Z,2.20
2018-08-12T06:20:44.211Z,2.20
2018-08-12T06:21:44.193Z,2.10
2018-08-12T06:22:44.171Z,2.20
2018-08-12T06:23:44.155Z,2.30
2018-08-12T06:24:44.133Z,2.10
2018-08-12T06:25:44.173Z,2.40
2018-08-12T06:26:44.096Z,2.30
2018-08-12T06:27:44.076Z,2.30
2018-08-12T06:28:44.058Z,2.40
2018-08-12T06:29:44.039Z,2.30
2018-08-12T06:30:44.019Z,2.30
2018-08-12T06:31:44.002Z,2.50
2018-08-12T06:32:43.981Z,2.10
2018-08-12T06:33:43.996Z,2.40
2018-08-12T06:34:43.943Z,2.20
2018-08-12T06:35:43.925Z,2.30
2018-08-12T06:36:43.906Z,2.40
2018-08-12T06:37:43.887Z,2.30
2018-08-12T06:38:43.867Z,2.30
2018-08-12T06:39:43.897Z,2.40
2018-08-12T06:40:43.830Z,2.40
2018-08-12T06:41:43.811Z,2.40
2018-08-12T06:42:43.791Z,2.40
2018-08-12T06:43:44.525Z,2.50
2018-08-12T06:44:43.755Z,2.30
2018-08-12T06:45:43.736Z,2.40
2018-08-12T06:46:43.716Z,2.40
2018-08-12T06:47:43.698Z,2.60
2018-08-12T06:48:43.680Z,2.30
2018-08-12T06:49:43.661Z,2.60
2018-08-12T06:50:43.643Z,2.60
2018-08-12T06:51:43.686Z,2.30
2018-08-12T06:52:43.606Z,2.30
2018-08-12T06:53:43.587Z,2.50
2018-08-12T06:54:43.567Z,2.60
2018-08-12T06:55:43.550Z,2.80
2018-08-12T06:56:43.531Z,2.50
2018-08-12T06:57:43.512Z,2.60
2018-08-12T06:58:43.495Z,2.70
2018-08-12T06:59:43.475Z,2.60
2018-08-12T07:00:43.456Z,2.70
2018-08-12T07:01:43.439Z,2.60
2018-08-12T07:02:43.419Z,2.60
2018-08-12T07:03:43.403Z,2.70
2018-08-12T07:04:43.382Z,2.80
2018-08-12T07:05:43.368Z,2.60
2018-08-12T07:06:43.349Z,2.60
2018-08-12T07:07:43.331Z,2.70
2018-08-12T07:08:43.308Z,2.60
2018-08-12T07:09:43.291Z,2.80
2018-08-12T07:10:43.272Z,3.00
2018-08-12T07:11:43.254Z,2.80
2018-08-12T07:12:43.235Z,2.80
2018-08-12T07:13:43.217Z,2.80
2018-08-12T07:14:43.198Z,3.10
2018-08-12T07:15:43.180Z,2.80
2018-08-12T07:16:43.161Z,2.90
2018-08-12T07:17:43.144Z,3.10
2018-08-12T07:18:43.125Z,2.70
2018-08-12T07:19:43.107Z,3.10
2018-08-12T07:20:43.094Z,2.80
2018-08-12T07:21:43.071Z,2.90
2018-08-12T07:22:43.052Z,3.10
2018-08-12T07:23:43.035Z,2.90
2018-08-12T07:24:43.057Z,2.90
2018-08-12T07:25:43.001Z,2.90
2018-08-12T07:26:42.983Z,2.60
2018-08-12T07:27:42.962Z,2.80
2018-08-12T07:28:42.944Z,3.00
2018-08-12T07:29:44.428Z,2.70
2018-08-12T07:30:42.908Z,2.70
2018-08-12T07:31:42.890Z,2.90
2018-08-12T07:32:42.925Z,2.50
2018-08-12T07:33:42.855Z,3.00
2018-08-12T07:34:42.837Z,2.70
2018-08-12T07:35:43.568Z,3.20
2018-08-12T07:36:42.801Z,2.90
2018-08-12T07:37:42.786Z,3.00
2018-08-12T07:38:42.804Z,3.00
2018-08-12T07:39:42.746Z,2.90
2018-08-12T07:40:42.729Z,3.00
2018-08-12T07:41:42.711Z,2.90
2018-08-12T07:42:42.692Z,3.40
2018-08-12T07:43:42.675Z,2.90
2018-08-12T07:44:42.662Z,3.50
2018-08-12T07:45:42.640Z,3.20
2018-08-12T07:46:42.621Z,2.90
2018-08-12T07:47:42.604Z,3.40
2018-08-12T07:48:42.613Z,2.90
2018-08-12T07:49:42.569Z,3.10
2018-08-12T07:50:42.550Z,3.00
2018-08-12T07:51:42.533Z,3.20
2018-08-12T07:52:42.524Z,2.80
2018-08-12T07:53:42.498Z,2.90
2018-08-12T07:54:42.482Z,3.30
2018-08-12T07:55:42.641Z,3.10
2018-08-12T07:56:42.446Z,3.40
2018-08-12T07:57:42.428Z,2.80
2018-08-12T07:58:42.410Z,3.20
2018-08-12T07:59:42.392Z,2.90
2018-08-12T08:00:42.378Z,2.60
2018-08-12T08:01:42.358Z,2.70
2018-08-12T08:02:42.340Z,2.80
2018-08-12T08:03:42.339Z,3.00
2018-08-12T08:04:42.305Z,3.10
2018-08-12T08:05:42.290Z,2.70
2018-08-12T08:06:42.271Z,3.00
2018-08-12T08:07:42.253Z,2.90
2018-08-12T08:08:42.237Z,2.90
2018-08-12T08:09:42.221Z,3.00
2018-08-12T08:10:42.201Z,3.30
2018-08-12T08:11:42.185Z,2.80
2018-08-12T08:12:42.171Z,3.00
2018-08-12T08:13:42.150Z,3.10
2018-08-12T08:14:42.133Z,3.10
2018-08-12T08:15:42.118Z,3.00
2018-08-12T08:16:42.098Z,2.90
2018-08-12T08:17:42.084Z,2.90
2018-08-12T08:18:42.064Z,3.10
2018-08-12T08:19:42.093Z,2.70
2018-08-12T08:20:42.033Z,2.90
2018-08-12T08:21:42.013Z,2.70
2018-08-12T08:22:41.997Z,3.10
2018-08-12T08:23:44.980Z,2.80
2018-08-12T08:24:41.961Z,2.70
2018-08-12T08:25:42.113Z,2.60
2018-08-12T08:26:41.925Z,2.90
2018-08-12T08:27:41.909Z,2.80
2018-08-12T08:28:41.893Z,2.90
2018-08-12T08:29:41.877Z,3.00
2018-08-12T08:30:41.858Z,2.70
2018-08-12T08:31:42.127Z,3.00
2018-08-12T08:32:41.827Z,3.00
2018-08-12T08:33:41.808Z,2.70
2018-08-12T08:34:41.790Z,2.70
2018-08-12T08:35:41.774Z,3.30
2018-08-12T08:36:41.756Z,2.80
2018-08-12T08:37:41.739Z,2.90
2018-08-12T08:38:41.722Z,3.00
2018-08-12T08:39:41.706Z,2.90
2018-08-12T08:40:41.690Z,2.80
2018-08-12T08:41:41.673Z,2.80
2018-08-12T08:42:41.655Z,2.90
2018-08-12T08:43:41.638Z,2.90
2018-08-12T08:44:41.650Z,2.90
2018-08-12T08:45:41.606Z,3.00
2018-08-12T08:46:41.588Z,2.90
2018-08-12T08:47:41.571Z,2.80
2018-08-12T08:48:41.555Z,2.70
2018-08-12T08:49:41.539Z,2.70
2018-08-12T08:50:41.593Z,2.80
2018-08-12T08:51:41.511Z,2.70
2018-08-12T08:52:41.490Z,2.80
2018-08-12T08:53:41.474Z,2.70
2018-08-12T08:54:41.456Z,2.60
2018-08-12T08:55:41.489Z,2.60
2018-08-12T08:56:41.424Z,2.80
2018-08-12T08:57:41.409Z,2.80
2018-08-12T08:58:41.389Z,2.80
2018-08-12T08:59:41.374Z,2.80
2018-08-12T09:00:41.358Z,3.10
2018-08-12T09:01:41.350Z,2.60
2018-08-12T09:02:42.076Z,2.80
2018-08-12T09:03:41.309Z,2.90
2018-08-12T09:04:41.293Z,2.60
2018-08-12T09:05:41.276Z,2.60
2018-08-12T09:06:41.258Z,2.50
2018-08-12T09:07:41.246Z,2.70
2018-08-12T09:08:41.556Z,2.90
2018-08-12T09:09:41.212Z,2.80
2018-08-12T09:10:41.193Z,2.70
2018-08-12T09:11:41.179Z,2.80
2018-08-12T09:12:41.163Z,2.60
2018-08-12T09:13:41.146Z,2.70
2018-08-12T09:14:41.133Z,2.90
2018-08-12T09:15:41.113Z,2.60
2018-08-12T09:16:41.097Z,2.90
2018-08-12T09:17:41.082Z,2.70
2018-08-12T09:18:41.065Z,2.60
2018-08-12T09:19:41.053Z,2.70
2018-08-12T09:20:41.033Z,3.00
2018-08-12T09:21:41.020Z,2.90
2018-08-12T09:22:41.000Z,3.00
2018-08-12T09:23:40.984Z,2.80
2018-08-12T09:24:40.968Z,2.80
2018-08-12T09:25:40.953Z,2.70
2018-08-12T09:26:40.937Z,2.50
2018-08-12T09:27:40.920Z,2.80
2018-08-12T09:28:40.906Z,2.70
2018-08-12T09:29:40.889Z,3.30
2018-08-12T09:30:40.873Z,2.70
2018-08-12T09:31:40.857Z,2.90
2018-08-12T09:32:40.842Z,2.50
2018-08-12T09:33:40.826Z,2.70
2018-08-12T09:34:40.813Z,2.50
2018-08-12T09:35:40.795Z,2.50
2018-08-12T09:36:40.782Z,2.50
2018-08-12T09:37:40.765Z,2.50
2018-08-12T09:38:40.747Z,2.40
2018-08-12T09:39:40.732Z,2.20
2018-08-12T09:40:40.717Z,2.50
2018-08-12T09:41:40.706Z,2.40
2018-08-12T09:42:40.689Z,2.40
2018-08-12T09:43:40.671Z,2.50
2018-08-12T09:44:40.655Z,2.80
2018-08-12T09:45:40.641Z,2.40
2018-08-12T09:46:40.628Z,2.80
2018-08-12T09:47:40.609Z,2.80
2018-08-12T09:48:40.594Z,2.80
2018-08-12T09:49:40.579Z,2.80
2018-08-12T09:50:40.562Z,2.70
2018-08-12T09:51:40.717Z,2.60
2018-08-12T09:52:40.533Z,2.80
2018-08-12T09:53:40.517Z,2.60
2018-08-12T09:54:40.501Z,2.90
2018-08-12T09:55:40.486Z,2.80
2018-08-12T09:56:40.472Z,2.50
2018-08-12T09:57:40.456Z,2.70
2018-08-12T09:58:40.441Z,2.50
2018-08-12T09:59:40.426Z,2.70
2018-08-12T10:00:40.410Z,2.90
2018-08-12T10:01:40.395Z,2.40
2018-08-12T10:02:40.379Z,2.70
2018-08-12T10:03:40.364Z,2.20
2018-08-12T10:04:40.350Z,2.70
2018-08-12T10:05:40.335Z,2.80
2018-08-12T10:06:40.321Z,2.80
2018-08-12T10:07:40.305Z,2.80
2018-08-12T10:08:40.289Z,3.20
2018-08-12T10:09:40.276Z,2.90
2018-08-12T10:10:40.260Z,2.80
2018-08-12T10:11:40.246Z,2.70
2018-08-12T10:12:40.232Z,2.70
2018-08-12T10:13:40.216Z,2.80
2018-08-12T10:14:40.202Z,2.70
2018-08-12T10:15:40.274Z,2.80
2018-08-12T10:16:40.175Z,2.80
2018-08-12T10:17:40.155Z,2.70
2018-08-12T10:18:40.140Z,2.80
2018-08-12T10:19:40.125Z,2.40
2018-08-12T10:20:40.111Z,2.70
2018-08-12T10:21:40.131Z,2.60
2018-08-12T10:22:40.079Z,2.80
2018-08-12T10:23:40.068Z,2.40
2018-08-12T10:24:40.055Z,2.60
2018-08-12T10:25:40.037Z,2.80
2018-08-12T10:26:40.022Z,2.70
2018-08-12T10:27:40.006Z,2.60
2018-08-12T10:28:39.991Z,2.70
2018-08-12T10:29:39.977Z,2.80
2018-08-12T10:30:39.961Z,2.80
2018-08-12T10:31:39.949Z,2.50
2018-08-12T10:32:39.932Z,2.50
2018-08-12T10:33:39.919Z,2.80
2018-08-12T10:34:39.903Z,2.20
2018-08-12T10:35:39.888Z,2.40
2018-08-12T10:36:39.875Z,2.70
2018-08-12T10:37:39.866Z,2.70
2018-08-12T10:38:39.845Z,2.60
2018-08-12T10:39:39.830Z,2.50
2018-08-12T10:40:39.814Z,2.70
2018-08-12T10:41:39.800Z,2.50
2018-08-12T10:42:39.785Z,2.60
2018-08-12T10:43:39.771Z,2.30
2018-08-12T10:44:39.756Z,2.30
2018-08-12T10:45:39.743Z,2.30
2018-08-12T10:46:39.727Z,2.40
2018-08-12T10:47:39.712Z,2.30
2018-08-12T10:48:39.698Z,2.30
2018-08-12T10:49:39.684Z,2.40
2018-08-12T10:50:39.670Z,2.10
2018-08-12T10:51:39.655Z,2.50
2018-08-12T10:52:39.647Z,2.10
2018-08-12T10:53:39.627Z,2.30
2018-08-12T10:54:39.611Z,2.30
2018-08-12T10:55:39.598Z,2.40
2018-08-12T10:56:42.586Z,2.30
2018-08-12T10:57:39.569Z,2.40
2018-08-12T10:58:39.556Z,2.20
2018-08-12T10:59:39.540Z,2.10
2018-08-12T11:00:39.526Z,2.20
2018-08-12T11:01:39.512Z,2.30
2018-08-12T11:02:40.247Z,2.20
2018-08-12T11:03:39.487Z,2.30
2018-08-12T11:04:39.468Z,2.20
2018-08-12T11:05:39.456Z,2.20
2018-08-12T11:06:39.440Z,2.10
2018-08-12T11:07:39.429Z,2.60
2018-08-12T11:08:39.412Z,2.40
2018-08-12T11:09:39.398Z,2.70
2018-08-12T11:10:39.383Z,2.20
2018-08-12T11:11:39.369Z,2.20
2018-08-12T11:12:39.388Z,2.20
2018-08-12T11:13:39.342Z,2.30
2018-08-12T11:14:39.326Z,2.00
2018-08-12T11:15:39.313Z,2.10
2018-08-12T11:16:39.299Z,2.10
2018-08-12T11:17:39.285Z,2.20
2018-08-12T11:18:40.022Z,1.90
2018-08-12T11:19:39.257Z,2.20
2018-08-12T11:20:39.243Z,2.30
2018-08-12T11:21:39.230Z,2.10
2018-08-12T11:22:39.218Z,2.40
2018-08-12T11:23:39.201Z,2.60
2018-08-12T11:24:39.187Z,2.30
2018-08-12T11:25:39.173Z,2.50
2018-08-12T11:26:39.159Z,2.50
2018-08-12T11:27:39.146Z,2.20
2018-08-12T11:28:39.228Z,2.30
2018-08-12T11:29:39.118Z,2.40
2018-08-12T11:30:39.103Z,2.50
2018-08-12T11:31:39.089Z,2.10
2018-08-12T11:32:39.076Z,2.20
2018-08-12T11:33:39.062Z,2.30
2018-08-12T11:34:39.057Z,2.40
2018-08-12T11:35:39.035Z,2.20
2018-08-12T11:36:39.020Z,2.00
2018-08-12T11:37:39.007Z,2.40
2018-08-12T11:38:38.994Z,2.30
2018-08-12T11:39:39.731Z,2.50
2018-08-12T11:40:38.966Z,2.10
2018-08-12T11:41:38.952Z,2.60
2018-08-12T11:42:38.939Z,2.60
2018-08-12T11:43:38.925Z,2.10
2018-08-12T11:44:38.911Z,2.20
2018-08-12T11:45:38.901Z,2.30
2018-08-12T11:46:38.884Z,2.30
2018-08-12T11:47:38.870Z,2.20
2018-08-12T11:48:38.859Z,2.10
2018-08-12T11:49:38.844Z,2.20
2018-08-12T11:50:38.829Z,2.20
2018-08-12T11:51:38.816Z,2.10
2018-08-12T11:52:38.805Z,2.30
2018-08-12T11:53:38.789Z,2.10
2018-08-12T11:54:38.774Z,2.20
2018-08-12T11:55:38.761Z,1.80
2018-08-12T11:56:38.749Z,2.10
2018-08-12T11:57:38.743Z,2.10
2018-08-12T11:58:38.720Z,2.20
2018-08-12T11:59:38.708Z,2.00
2018-08-12T12:00:38.695Z,2.10
2018-08-12T12:01:38.682Z,2.20
2018-08-12T12:02:38.666Z,2.10
2018-08-12T12:03:38.653Z,2.10
2018-08-12T12:04:38.640Z,2.30
2018-08-12T12:05:38.627Z,2.10
2018-08-12T12:06:39.366Z,2.20
2018-08-12T12:07:38.600Z,1.80
2018-08-12T12:08:38.587Z,1.80
2018-08-12T12:09:38.573Z,2.00
2018-08-12T12:10:38.561Z,2.10
2018-08-12T12:11:38.547Z,2.10
2018-08-12T12:12:38.533Z,2.10
2018-08-12T12:13:38.523Z,2.00
2018-08-12T12:14:38.506Z,2.10
2018-08-12T12:15:38.494Z,1.70
2018-08-12T12:16:38.480Z,1.90
2018-08-12T12:17:39.220Z,2.10
2018-08-12T12:18:38.455Z,1.80
2018-08-12T12:19:38.442Z,2.10
2018-08-12T12:20:38.524Z,1.80
2018-08-12T12:21:38.416Z,2.10
2018-08-12T12:22:38.403Z,1.90
2018-08-12T12:23:38.389Z,2.00
2018-08-12T12:24:38.376Z,1.80
2018-08-12T12:25:38.363Z,1.90
2018-08-12T12:26:38.349Z,1.90
2018-08-12T12:27:38.336Z,2.00
2018-08-12T12:28:38.324Z,1.80
2018-08-12T12:29:38.310Z,2.00
2018-08-12T12:30:38.297Z,1.80
2018-08-12T12:31:38.285Z,2.00
2018-08-12T12:32:38.272Z,1.90
2018-08-12T12:33:38.260Z,1.80
2018-08-12T12:34:38.245Z,2.00
2018-08-12T12:35:38.304Z,1.80
2018-08-12T12:36:38.220Z,1.90
2018-08-12T12:37:38.210Z,1.90
2018-08-12T12:38:38.194Z,1.90
2018-08-12T12:39:38.181Z,1.80
2018-08-12T12:40:38.169Z,2.20
2018-08-12T12:41:38.158Z,2.30
2018-08-12T12:42:38.145Z,1.90
2018-08-12T12:43:38.132Z,1.90
2018-08-12T12:44:38.119Z,2.00
2018-08-12T12:45:38.108Z,1.90
2018-08-12T12:46:38.094Z,1.80
2018-08-12T12:47:38.081Z,2.10
2018-08-12T12:48:38.069Z,2.00
2018-08-12T12:49:38.167Z,2.00
2018-08-12T12:50:38.049Z,2.10
2018-08-12T12:51:38.032Z,1.90
2018-08-12T12:52:38.019Z,2.00
2018-08-12T12:53:38.759Z,2.00
2018-08-12T12:54:37.993Z,2.10
2018-08-12T12:55:37.981Z,1.80
2018-08-12T12:56:37.969Z,1.70
2018-08-12T12:57:37.957Z,2.00
2018-08-12T12:58:37.944Z,1.80
2018-08-12T12:59:37.932Z,1.90
2018-08-12T13:00:37.920Z,1.90
2018-08-12T13:01:37.908Z,1.90
2018-08-12T13:02:37.898Z,1.80
2018-08-12T13:03:37.884Z,1.90
2018-08-12T13:04:37.872Z,1.80
2018-08-12T13:05:37.860Z,1.80
2018-08-12T13:06:37.852Z,1.80
2018-08-12T13:07:37.835Z,2.00
2018-08-12T13:08:37.823Z,2.00
2018-08-12T13:09:37.811Z,2.20
2018-08-12T13:10:37.798Z,2.70
2018-08-12T13:11:37.786Z,2.00
2018-08-12T13:12:37.871Z,1.90
2018-08-12T13:13:37.762Z,2.40
2018-08-12T13:14:37.748Z,1.60
2018-08-12T13:15:37.736Z,1.90
2018-08-12T13:16:37.727Z,1.90
2018-08-12T13:17:37.713Z,2.00
2018-08-12T13:18:37.701Z,1.90